Hyde, Louisiana
Current Conditions -  °F | °C
As of 10:15 PM on Sunday 25 Jan 2015 (Local Time) from KHZR Reporting Station
Clear Clear  
Wind Chill: 55°   Ceiling: Unl
Heat Index: 55°   Visibility: 10mi
Dew Point: 34°   Wind: 14mph
Humidity: 45%   Direction: 290°WNW
Pressure: 30"   Gusts: NA
Location:  30.9317°N, 91.8606°W
Report Text: KHZR 260415Z AUTO 29012KT 10SM CLR 13/01 A3000 RMK AO2 T01250009
Loading
Personal Weather Stations






























Interactive Weather Map New forecast layout! Learn more

10-Day Weather Forecast

Advertisements
Track Severe Weather on mobile